Aérodrome :
LOGIN :

S'inscrire | Disclaimer

   EN    FR    IT 

 










Légende :    VFR   VFR Marginal   IFR   IFR Intensif   IFR Très Intensif
Visi : 
Plafond : 
>= 8 km
>= 3000ft
5 à 8 km
1000 à 3000 ft
1500m à 5 km
500 à 1000 ft
800 à 1500m
200 à 500 ft
< 800m
< 200 ft
Symboles :   Orages  Brouillard  Fortes neiges  Fortes précipitations  Vent > 20 kt
SIGMETs :   Divers  Orages  Givrage  Turbulence  Onde Orograph.  Cendres Volcan.







- Altitude de l'aérodrome : 1036 ft
- Code IATA : ERF


EDDE - Erfurt

DERNIER METAR :
  • 231820Z 32002KT CAVOK 03/M07 Q1039 NOSIG

METARs EXPIRÉS :
  • 231750Z 02002KT CAVOK 04/M07 Q1039 NOSIG
  • 231720Z 36002KT CAVOK 04/M07 Q1039 NOSIG
  • 231650Z 06002KT CAVOK 05/M08 Q1039 NOSIG
  • 231620Z VRB02KT CAVOK 05/M07 Q1039 NOSIG
  • 231550Z 10006KT CAVOK 05/M08 Q1039 NOSIG
  • 231520Z 01006KT 340V040 CAVOK 05/M02 Q1039 NOSIG

TAF TAF EDDE
Valide du 23 à 18h jusqu'au 24 à 18h UTC


231700Z 2318/2418 11004KT CAVOK
BECMG 2409/2412 31005KT
Pas de NOTAMs connus pour ce terrain.



MET'MAP, la Météo Aéronautique d'un coup d'oeil ! - Copyright ORBIFLY Décembre 2007 - Disclaimer

ORBIFLY MET'MAP TEAM :

Programmation & Développement : Alexandra Zaïnal
Conception & Développement : Baudouin d'Aumeries
Co-Programmation & Développement : Marc-Olivier Méhu
Soutien technique & logistique : Manuel Goepfert

Contact : metmap@orbifly.com




SOURCES & CREDITS :

   NOAA